sensor_id;sensor_type;location;lat;lon;timestamp;pressure;altitude;pressure_sealevel;temperature;humidity
59939;BME280;45801;51.810;19.444;2024-02-21T00:01:16;99582.24;;;6.26;78.32
59939;BME280;45801;51.810;19.444;2024-02-21T00:03:43;99580.68;;;6.26;78.39
59939;BME280;45801;51.810;19.444;2024-02-21T00:06:11;99580.58;;;6.22;78.64
59939;BME280;45801;51.810;19.444;2024-02-21T00:08:37;99575.88;;;6.17;78.98
59939;BME280;45801;51.810;19.444;2024-02-21T00:11:04;99572.00;;;6.18;78.69
59939;BME280;45801;51.810;19.444;2024-02-21T00:13:31;99571.50;;;6.21;78.66
59939;BME280;45801;51.810;19.444;2024-02-21T00:15:57;99570.50;;;6.22;78.67
59939;BME280;45801;51.810;19.444;2024-02-21T00:18:24;99571.45;;;6.23;78.64
59939;BME280;45801;51.810;19.444;2024-02-21T00:20:50;99568.52;;;6.24;78.76
59939;BME280;45801;51.810;19.444;2024-02-21T00:23:17;99569.35;;;6.31;78.58
59939;BME280;45801;51.810;19.444;2024-02-21T00:25:44;99562.89;;;6.39;78.38
59939;BME280;45801;51.810;19.444;2024-02-21T00:28:10;99564.60;;;6.38;78.30
59939;BME280;45801;51.810;19.444;2024-02-21T00:30:37;99565.52;;;6.39;78.52
59939;BME280;45801;51.810;19.444;2024-02-21T00:33:04;99565.16;;;6.42;78.38
59939;BME280;45801;51.810;19.444;2024-02-21T00:35:31;99563.15;;;6.35;78.36
59939;BME280;45801;51.810;19.444;2024-02-21T00:37:58;99566.92;;;6.34;78.67
59939;BME280;45801;51.810;19.444;2024-02-21T00:40:26;99561.28;;;6.38;78.51
59939;BME280;45801;51.810;19.444;2024-02-21T00:42:52;99562.05;;;6.36;78.58
59939;BME280;45801;51.810;19.444;2024-02-21T00:45:19;99556.67;;;6.37;78.59
59939;BME280;45801;51.810;19.444;2024-02-21T00:47:45;99554.48;;;6.38;78.28
59939;BME280;45801;51.810;19.444;2024-02-21T00:50:12;99553.84;;;6.33;78.75
59939;BME280;45801;51.810;19.444;2024-02-21T00:52:39;99558.29;;;6.32;78.85
59939;BME280;45801;51.810;19.444;2024-02-21T00:55:06;99558.63;;;6.32;78.96
59939;BME280;45801;51.810;19.444;2024-02-21T00:57:33;99554.35;;;6.20;79.42
59939;BME280;45801;51.810;19.444;2024-02-21T01:00:00;99551.20;;;6.22;79.19
59939;BME280;45801;51.810;19.444;2024-02-21T01:02:27;99552.19;;;6.27;79.05
59939;BME280;45801;51.810;19.444;2024-02-21T01:04:55;99550.00;;;6.28;79.08
59939;BME280;45801;51.810;19.444;2024-02-21T01:07:21;99544.33;;;6.29;79.12
59939;BME280;45801;51.810;19.444;2024-02-21T01:09:48;99544.55;;;6.29;79.07
59939;BME280;45801;51.810;19.444;2024-02-21T01:12:14;99541.62;;;6.30;79.31
59939;BME280;45801;51.810;19.444;2024-02-21T01:14:41;99540.89;;;6.32;79.13
59939;BME280;45801;51.810;19.444;2024-02-21T01:17:07;99538.62;;;6.29;79.29
59939;BME280;45801;51.810;19.444;2024-02-21T01:19:34;99535.27;;;6.29;79.15
59939;BME280;45801;51.810;19.444;2024-02-21T01:22:01;99532.62;;;6.33;78.97
59939;BME280;45801;51.810;19.444;2024-02-21T01:24:27;99537.42;;;6.32;79.21
59939;BME280;45801;51.810;19.444;2024-02-21T01:26:54;99536.48;;;6.23;79.74
59939;BME280;45801;51.810;19.444;2024-02-21T01:29:20;99530.63;;;6.24;79.91
59939;BME280;45801;51.810;19.444;2024-02-21T01:31:47;99530.55;;;6.45;80.21
59939;BME280;45801;51.810;19.444;2024-02-21T01:34:13;99527.50;;;6.60;79.06
59939;BME280;45801;51.810;19.444;2024-02-21T01:36:40;99527.00;;;6.63;78.81
59939;BME280;45801;51.810;19.444;2024-02-21T01:39:08;99524.95;;;6.60;78.79
59939;BME280;45801;51.810;19.444;2024-02-21T01:41:34;99521.30;;;6.58;78.94
59939;BME280;45801;51.810;19.444;2024-02-21T01:44:01;99519.42;;;6.58;79.01
59939;BME280;45801;51.810;19.444;2024-02-21T01:46:28;99519.60;;;6.59;79.03
59939;BME280;45801;51.810;19.444;2024-02-21T01:48:57;99522.64;;;6.54;78.97
59939;BME280;45801;51.810;19.444;2024-02-21T01:51:24;99522.20;;;6.52;79.06
59939;BME280;45801;51.810;19.444;2024-02-21T01:53:52;99518.29;;;6.51;79.23
59939;BME280;45801;51.810;19.444;2024-02-21T01:56:19;99518.91;;;6.45;79.51
59939;BME280;45801;51.810;19.444;2024-02-21T01:58:48;99516.25;;;6.44;79.61
59939;BME280;45801;51.810;19.444;2024-02-21T02:01:15;99513.98;;;6.38;79.73
59939;BME280;45801;51.810;19.444;2024-02-21T02:03:45;99511.71;;;6.38;79.67
59939;BME280;45801;51.810;19.444;2024-02-21T02:06:12;99510.02;;;6.42;79.74
59939;BME280;45801;51.810;19.444;2024-02-21T02:08:39;99508.91;;;6.41;79.77
59939;BME280;45801;51.810;19.444;2024-02-21T02:11:06;99503.93;;;6.39;79.89
59939;BME280;45801;51.810;19.444;2024-02-21T02:13:33;99501.98;;;6.41;79.79
59939;BME280;45801;51.810;19.444;2024-02-21T02:15:59;99502.52;;;6.53;80.40
59939;BME280;45801;51.810;19.444;2024-02-21T02:18:26;99494.64;;;6.91;80.13
59939;BME280;45801;51.810;19.444;2024-02-21T02:20:53;99488.70;;;7.11;78.37
59939;BME280;45801;51.810;19.444;2024-02-21T02:23:26;99485.77;;;7.11;78.22
59939;BME280;45801;51.810;19.444;2024-02-21T02:25:54;99489.02;;;6.96;78.01
59939;BME280;45801;51.810;19.444;2024-02-21T02:28:20;99485.91;;;6.88;78.53
59939;BME280;45801;51.810;19.444;2024-02-21T02:30:48;99485.20;;;6.82;78.68
59939;BME280;45801;51.810;19.444;2024-02-21T02:33:15;99483.66;;;6.74;78.78
59939;BME280;45801;51.810;19.444;2024-02-21T02:35:44;99481.25;;;6.66;79.23
59939;BME280;45801;51.810;19.444;2024-02-21T02:38:10;99484.45;;;6.64;79.32
59939;BME280;45801;51.810;19.444;2024-02-21T02:40:38;99480.61;;;6.61;79.37
59939;BME280;45801;51.810;19.444;2024-02-21T02:43:06;99477.07;;;6.60;79.59
59939;BME280;45801;51.810;19.444;2024-02-21T02:45:33;99475.24;;;6.62;79.45
59939;BME280;45801;51.810;19.444;2024-02-21T02:48:00;99473.87;;;6.65;79.33
59939;BME280;45801;51.810;19.444;2024-02-21T02:50:27;99473.13;;;6.64;79.33
59939;BME280;45801;51.810;19.444;2024-02-21T02:52:54;99470.23;;;6.65;79.47
59939;BME280;45801;51.810;19.444;2024-02-21T02:55:21;99463.16;;;6.69;79.35
59939;BME280;45801;51.810;19.444;2024-02-21T02:57:48;99462.50;;;6.72;79.21
59939;BME280;45801;51.810;19.444;2024-02-21T03:00:15;99463.27;;;6.76;79.11
59939;BME280;45801;51.810;19.444;2024-02-21T03:02:44;99465.84;;;6.79;78.97
59939;BME280;45801;51.810;19.444;2024-02-21T03:05:17;99458.10;;;6.80;79.02
59939;BME280;45801;51.810;19.444;2024-02-21T03:07:44;99456.12;;;6.84;78.92
59939;BME280;45801;51.810;19.444;2024-02-21T03:10:12;99456.38;;;6.89;78.78
59939;BME280;45801;51.810;19.444;2024-02-21T03:12:39;99457.86;;;6.90;78.72
59939;BME280;45801;51.810;19.444;2024-02-21T03:15:06;99459.57;;;6.90;78.69
59939;BME280;45801;51.810;19.444;2024-02-21T03:17:33;99456.65;;;6.93;78.89
59939;BME280;45801;51.810;19.444;2024-02-21T03:20:03;99458.52;;;6.98;78.75
59939;BME280;45801;51.810;19.444;2024-02-21T03:22:36;99464.52;;;7.02;78.62
59939;BME280;45801;51.810;19.444;2024-02-21T03:25:05;99460.64;;;6.96;78.36
59939;BME280;45801;51.810;19.444;2024-02-21T03:27:32;99461.80;;;6.89;78.71
59939;BME280;45801;51.810;19.444;2024-02-21T03:29:59;99460.17;;;6.83;78.82
59939;BME280;45801;51.810;19.444;2024-02-21T03:32:26;99464.73;;;6.77;78.92
59939;BME280;45801;51.810;19.444;2024-02-21T03:34:52;99463.21;;;6.78;79.09
59939;BME280;45801;51.810;19.444;2024-02-21T03:37:19;99460.80;;;6.78;79.10
59939;BME280;45801;51.810;19.444;2024-02-21T03:39:46;99461.02;;;6.79;79.24
59939;BME280;45801;51.810;19.444;2024-02-21T03:42:13;99457.92;;;6.82;79.06
59939;BME280;45801;51.810;19.444;2024-02-21T03:44:41;99456.78;;;6.84;78.91
59939;BME280;45801;51.810;19.444;2024-02-21T03:47:07;99453.20;;;6.85;78.91
59939;BME280;45801;51.810;19.444;2024-02-21T03:49:37;99450.55;;;6.82;78.94
59939;BME280;45801;51.810;19.444;2024-02-21T03:52:04;99450.85;;;6.84;79.04
59939;BME280;45801;51.810;19.444;2024-02-21T03:54:30;99451.96;;;6.87;78.95
59939;BME280;45801;51.810;19.444;2024-02-21T03:56:57;99449.33;;;6.87;78.71
59939;BME280;45801;51.810;19.444;2024-02-21T03:59:23;99448.88;;;6.88;78.84
59939;BME280;45801;51.810;19.444;2024-02-21T04:01:53;99447.63;;;6.82;79.07
59939;BME280;45801;51.810;19.444;2024-02-21T04:04:20;99447.49;;;6.83;79.09
59939;BME280;45801;51.810;19.444;2024-02-21T04:06:50;99450.23;;;6.71;79.55
59939;BME280;45801;51.810;19.444;2024-02-21T04:09:18;99449.56;;;6.68;79.55
59939;BME280;45801;51.810;19.444;2024-02-21T04:11:44;99447.23;;;6.70;79.59
59939;BME280;45801;51.810;19.444;2024-02-21T04:14:11;99449.55;;;6.71;79.48
59939;BME280;45801;51.810;19.444;2024-02-21T04:16:37;99447.86;;;6.69;79.56
59939;BME280;45801;51.810;19.444;2024-02-21T04:19:05;99444.81;;;6.70;79.66
59939;BME280;45801;51.810;19.444;2024-02-21T04:21:32;99441.17;;;6.68;79.75
59939;BME280;45801;51.810;19.444;2024-02-21T04:23:58;99435.10;;;6.68;79.72
59939;BME280;45801;51.810;19.444;2024-02-21T04:26:25;99435.09;;;6.65;79.84
59939;BME280;45801;51.810;19.444;2024-02-21T04:28:51;99432.38;;;6.66;79.66
59939;BME280;45801;51.810;19.444;2024-02-21T04:31:18;99432.09;;;6.67;79.84
59939;BME280;45801;51.810;19.444;2024-02-21T04:33:44;99429.59;;;6.72;79.55
59939;BME280;45801;51.810;19.444;2024-02-21T04:36:11;99422.70;;;6.73;79.73
59939;BME280;45801;51.810;19.444;2024-02-21T04:38:37;99422.20;;;6.70;79.78
59939;BME280;45801;51.810;19.444;2024-02-21T04:41:05;99417.39;;;6.72;79.72
59939;BME280;45801;51.810;19.444;2024-02-21T04:43:32;99416.11;;;6.76;79.57
59939;BME280;45801;51.810;19.444;2024-02-21T04:45:59;99419.21;;;6.82;79.53
59939;BME280;45801;51.810;19.444;2024-02-21T04:48:26;99419.44;;;6.85;79.29
59939;BME280;45801;51.810;19.444;2024-02-21T04:50:53;99417.16;;;6.82;79.58
59939;BME280;45801;51.810;19.444;2024-02-21T04:53:19;99415.19;;;6.78;79.58
59939;BME280;45801;51.810;19.444;2024-02-21T04:55:47;99408.48;;;6.83;79.37
59939;BME280;45801;51.810;19.444;2024-02-21T04:58:13;99401.83;;;6.82;79.28
59939;BME280;45801;51.810;19.444;2024-02-21T05:00:40;99396.77;;;6.79;79.26
59939;BME280;45801;51.810;19.444;2024-02-21T05:03:06;99398.16;;;6.79;79.20
59939;BME280;45801;51.810;19.444;2024-02-21T05:05:33;99398.46;;;6.81;79.38
59939;BME280;45801;51.810;19.444;2024-02-21T05:08:00;99400.91;;;6.78;79.32
59939;BME280;45801;51.810;19.444;2024-02-21T05:10:26;99404.90;;;6.81;79.47
59939;BME280;45801;51.810;19.444;2024-02-21T05:12:54;99404.14;;;6.83;79.20
59939;BME280;45801;51.810;19.444;2024-02-21T05:15:21;99404.52;;;6.83;79.22
59939;BME280;45801;51.810;19.444;2024-02-21T05:17:47;99406.68;;;6.84;79.15
59939;BME280;45801;51.810;19.444;2024-02-21T05:20:14;99408.67;;;6.83;79.23
59939;BME280;45801;51.810;19.444;2024-02-21T05:22:40;99411.86;;;6.81;79.24
59939;BME280;45801;51.810;19.444;2024-02-21T05:25:07;99406.86;;;6.76;79.28
59939;BME280;45801;51.810;19.444;2024-02-21T05:27:34;99407.77;;;6.76;79.08
59939;BME280;45801;51.810;19.444;2024-02-21T05:30:03;99408.72;;;6.78;79.22
59939;BME280;45801;51.810;19.444;2024-02-21T05:32:30;99406.25;;;6.69;79.58
59939;BME280;45801;51.810;19.444;2024-02-21T05:34:56;99402.42;;;6.57;79.81
59939;BME280;45801;51.810;19.444;2024-02-21T05:37:24;99398.33;;;6.50;80.13
59939;BME280;45801;51.810;19.444;2024-02-21T05:39:51;99398.52;;;6.48;79.94
59939;BME280;45801;51.810;19.444;2024-02-21T05:42:17;99398.23;;;6.51;80.00
59939;BME280;45801;51.810;19.444;2024-02-21T05:44:44;99401.05;;;6.55;79.83
59939;BME280;45801;51.810;19.444;2024-02-21T05:47:10;99400.71;;;6.61;79.78
59939;BME280;45801;51.810;19.444;2024-02-21T05:49:39;99403.83;;;6.64;79.78
59939;BME280;45801;51.810;19.444;2024-02-21T05:52:06;99402.94;;;6.60;79.85
59939;BME280;45801;51.810;19.444;2024-02-21T05:54:32;99397.64;;;6.65;79.88
59939;BME280;45801;51.810;19.444;2024-02-21T05:56:59;99397.65;;;6.62;79.89
59939;BME280;45801;51.810;19.444;2024-02-21T05:59:25;99394.17;;;6.62;79.91
59939;BME280;45801;51.810;19.444;2024-02-21T06:01:58;99391.61;;;6.63;79.95
59939;BME280;45801;51.810;19.444;2024-02-21T06:04:25;99393.20;;;6.66;79.88
59939;BME280;45801;51.810;19.444;2024-02-21T06:06:52;99394.45;;;6.72;79.73
59939;BME280;45801;51.810;19.444;2024-02-21T06:09:18;99396.17;;;6.78;79.29
59939;BME280;45801;51.810;19.444;2024-02-21T06:11:45;99393.92;;;6.81;79.24
59939;BME280;45801;51.810;19.444;2024-02-21T06:14:12;99395.08;;;6.85;79.14
59939;BME280;45801;51.810;19.444;2024-02-21T06:16:39;99388.61;;;6.85;79.07
59939;BME280;45801;51.810;19.444;2024-02-21T06:19:06;99385.96;;;6.87;79.05
59939;BME280;45801;51.810;19.444;2024-02-21T06:21:32;99387.80;;;6.92;79.06
59939;BME280;45801;51.810;19.444;2024-02-21T06:23:59;99387.96;;;6.95;78.88
59939;BME280;45801;51.810;19.444;2024-02-21T06:26:26;99386.60;;;6.89;78.69
59939;BME280;45801;51.810;19.444;2024-02-21T06:28:53;99383.62;;;6.92;78.96
59939;BME280;45801;51.810;19.444;2024-02-21T06:31:20;99379.88;;;6.90;78.64
59939;BME280;45801;51.810;19.444;2024-02-21T06:33:53;99380.59;;;6.91;78.82
59939;BME280;45801;51.810;19.444;2024-02-21T06:36:20;99379.70;;;6.88;78.81
59939;BME280;45801;51.810;19.444;2024-02-21T06:38:46;99375.11;;;6.89;78.97
59939;BME280;45801;51.810;19.444;2024-02-21T06:41:17;99376.65;;;6.95;78.79
59939;BME280;45801;51.810;19.444;2024-02-21T06:43:45;99372.23;;;6.99;78.83
59939;BME280;45801;51.810;19.444;2024-02-21T06:48:51;99374.67;;;7.03;78.73
59939;BME280;45801;51.810;19.444;2024-02-21T06:51:18;99376.55;;;7.02;78.69
59939;BME280;45801;51.810;19.444;2024-02-21T06:53:44;99371.44;;;7.01;78.64
59939;BME280;45801;51.810;19.444;2024-02-21T06:56:11;99371.86;;;6.99;78.51
59939;BME280;45801;51.810;19.444;2024-02-21T06:58:37;99373.20;;;6.95;78.76
59939;BME280;45801;51.810;19.444;2024-02-21T07:01:03;99374.35;;;6.94;78.93
59939;BME280;45801;51.810;19.444;2024-02-21T07:03:30;99373.69;;;6.95;79.01
59939;BME280;45801;51.810;19.444;2024-02-21T07:05:57;99370.57;;;6.98;79.06
59939;BME280;45801;51.810;19.444;2024-02-21T07:08:23;99369.70;;;6.98;78.75
59939;BME280;45801;51.810;19.444;2024-02-21T07:10:50;99367.45;;;6.92;78.93
59939;BME280;45801;51.810;19.444;2024-02-21T07:13:16;99367.23;;;6.97;79.10
59939;BME280;45801;51.810;19.444;2024-02-21T07:15:44;99368.85;;;6.98;78.91
59939;BME280;45801;51.810;19.444;2024-02-21T07:18:10;99369.19;;;6.98;78.96
59939;BME280;45801;51.810;19.444;2024-02-21T07:20:36;99363.25;;;7.04;78.96
59939;BME280;45801;51.810;19.444;2024-02-21T07:23:03;99361.55;;;7.07;78.80
59939;BME280;45801;51.810;19.444;2024-02-21T07:25:30;99361.70;;;7.10;78.81
59939;BME280;45801;51.810;19.444;2024-02-21T07:27:56;99360.04;;;7.11;78.85
59939;BME280;45801;51.810;19.444;2024-02-21T07:30:23;99357.50;;;7.10;78.93
59939;BME280;45801;51.810;19.444;2024-02-21T07:32:50;99357.02;;;7.02;79.40
59939;BME280;45801;51.810;19.444;2024-02-21T07:35:18;99348.57;;;7.03;79.13
59939;BME280;45801;51.810;19.444;2024-02-21T07:37:44;99346.42;;;7.05;79.38
59939;BME280;45801;51.810;19.444;2024-02-21T07:40:15;99343.58;;;7.04;79.39
59939;BME280;45801;51.810;19.444;2024-02-21T07:42:43;99341.47;;;7.04;79.43
59939;BME280;45801;51.810;19.444;2024-02-21T07:45:10;99336.23;;;7.01;79.56
59939;BME280;45801;51.810;19.444;2024-02-21T07:47:37;99340.29;;;6.92;79.60
59939;BME280;45801;51.810;19.444;2024-02-21T07:50:04;99341.42;;;6.85;80.00
59939;BME280;45801;51.810;19.444;2024-02-21T07:52:31;99341.60;;;6.76;80.58
59939;BME280;45801;51.810;19.444;2024-02-21T07:54:57;99347.08;;;6.69;80.98
59939;BME280;45801;51.810;19.444;2024-02-21T07:57:24;99343.38;;;6.71;80.95
59939;BME280;45801;51.810;19.444;2024-02-21T07:59:51;99341.41;;;6.56;81.88
59939;BME280;45801;51.810;19.444;2024-02-21T08:02:17;99342.29;;;6.56;81.88
59939;BME280;45801;51.810;19.444;2024-02-21T08:04:44;99336.33;;;6.64;81.46
59939;BME280;45801;51.810;19.444;2024-02-21T08:07:10;99333.86;;;6.63;81.72
59939;BME280;45801;51.810;19.444;2024-02-21T08:09:39;99336.59;;;6.68;81.47
59939;BME280;45801;51.810;19.444;2024-02-21T08:12:06;99332.73;;;6.68;82.05
59939;BME280;45801;51.810;19.444;2024-02-21T08:14:33;99330.73;;;6.69;81.92
59939;BME280;45801;51.810;19.444;2024-02-21T08:16:59;99328.25;;;6.69;82.27
59939;BME280;45801;51.810;19.444;2024-02-21T08:19:26;99328.07;;;6.77;81.48
59939;BME280;45801;51.810;19.444;2024-02-21T08:21:52;99326.09;;;6.76;81.65
59939;BME280;45801;51.810;19.444;2024-02-21T08:24:19;99322.89;;;6.78;81.76
59939;BME280;45801;51.810;19.444;2024-02-21T08:26:45;99324.40;;;6.74;82.28
59939;BME280;45801;51.810;19.444;2024-02-21T08:29:12;99316.83;;;6.70;82.37
59939;BME280;45801;51.810;19.444;2024-02-21T08:31:38;99314.27;;;6.70;81.99
59939;BME280;45801;51.810;19.444;2024-02-21T08:34:05;99311.30;;;6.76;81.79
59939;BME280;45801;51.810;19.444;2024-02-21T08:36:33;99309.20;;;6.82;81.76
59939;BME280;45801;51.810;19.444;2024-02-21T08:39:00;99305.15;;;6.84;81.85
59939;BME280;45801;51.810;19.444;2024-02-21T08:41:27;99295.50;;;6.86;81.74
59939;BME280;45801;51.810;19.444;2024-02-21T08:43:54;99301.20;;;6.91;81.34
59939;BME280;45801;51.810;19.444;2024-02-21T08:46:20;99302.05;;;6.94;81.42
59939;BME280;45801;51.810;19.444;2024-02-21T08:48:47;99305.37;;;6.94;81.57
59939;BME280;45801;51.810;19.444;2024-02-21T08:51:14;99301.81;;;6.98;81.25
59939;BME280;45801;51.810;19.444;2024-02-21T08:53:40;99302.92;;;6.97;81.23
59939;BME280;45801;51.810;19.444;2024-02-21T08:56:07;99299.88;;;6.98;81.32
59939;BME280;45801;51.810;19.444;2024-02-21T08:58:37;99304.16;;;6.94;81.61
59939;BME280;45801;51.810;19.444;2024-02-21T09:01:03;99302.45;;;7.01;81.36
59939;BME280;45801;51.810;19.444;2024-02-21T09:03:33;99295.23;;;7.02;80.86
59939;BME280;45801;51.810;19.444;2024-02-21T09:06:00;99286.05;;;7.03;80.98
59939;BME280;45801;51.810;19.444;2024-02-21T09:08:26;99287.52;;;7.07;81.11
59939;BME280;45801;51.810;19.444;2024-02-21T09:10:53;99289.73;;;7.09;81.12
59939;BME280;45801;51.810;19.444;2024-02-21T09:13:20;99288.50;;;7.12;80.95
59939;BME280;45801;51.810;19.444;2024-02-21T09:15:47;99288.14;;;7.15;81.28
59939;BME280;45801;51.810;19.444;2024-02-21T09:18:15;99289.50;;;7.18;81.58
59939;BME280;45801;51.810;19.444;2024-02-21T09:20:43;99290.25;;;7.15;81.36
59939;BME280;45801;51.810;19.444;2024-02-21T09:23:09;99289.97;;;7.23;81.03
59939;BME280;45801;51.810;19.444;2024-02-21T09:25:36;99288.98;;;7.33;81.07
59939;BME280;45801;51.810;19.444;2024-02-21T09:28:03;99288.63;;;7.39;80.84
59939;BME280;45801;51.810;19.444;2024-02-21T09:30:30;99285.27;;;7.44;80.31
59939;BME280;45801;51.810;19.444;2024-02-21T09:32:56;99284.13;;;7.46;80.23
59939;BME280;45801;51.810;19.444;2024-02-21T09:35:25;99283.41;;;7.45;79.87
59939;BME280;45801;51.810;19.444;2024-02-21T09:37:54;99280.63;;;7.52;79.74
59939;BME280;45801;51.810;19.444;2024-02-21T09:40:21;99281.23;;;7.53;79.59
59939;BME280;45801;51.810;19.444;2024-02-21T09:42:48;99280.66;;;7.59;79.71
59939;BME280;45801;51.810;19.444;2024-02-21T09:45:22;99283.46;;;7.56;79.46
59939;BME280;45801;51.810;19.444;2024-02-21T09:48:20;99282.16;;;7.51;79.46
59939;BME280;45801;51.810;19.444;2024-02-21T09:50:53;99278.31;;;7.48;79.76
59939;BME280;45801;51.810;19.444;2024-02-21T09:53:24;99278.80;;;7.47;79.69
59939;BME280;45801;51.810;19.444;2024-02-21T09:55:51;99277.16;;;7.49;79.51
59939;BME280;45801;51.810;19.444;2024-02-21T09:58:19;99274.04;;;7.52;79.53
59939;BME280;45801;51.810;19.444;2024-02-21T10:00:45;99271.13;;;7.56;79.29
59939;BME280;45801;51.810;19.444;2024-02-21T10:03:12;99272.84;;;7.50;79.10
59939;BME280;45801;51.810;19.444;2024-02-21T10:05:47;99271.48;;;7.47;79.46
59939;BME280;45801;51.810;19.444;2024-02-21T10:08:14;99269.80;;;7.58;79.72
59939;BME280;45801;51.810;19.444;2024-02-21T10:10:43;99263.81;;;7.60;79.21
59939;BME280;45801;51.810;19.444;2024-02-21T10:13:10;99259.70;;;7.64;79.20
59939;BME280;45801;51.810;19.444;2024-02-21T10:15:37;99256.73;;;7.71;79.47
59939;BME280;45801;51.810;19.444;2024-02-21T10:18:04;99256.60;;;7.71;79.77
59939;BME280;45801;51.810;19.444;2024-02-21T10:20:31;99254.14;;;7.71;79.89
59939;BME280;45801;51.810;19.444;2024-02-21T10:23:04;99250.36;;;7.75;79.98
59939;BME280;45801;51.810;19.444;2024-02-21T10:25:37;99245.20;;;7.76;80.39
59939;BME280;45801;51.810;19.444;2024-02-21T10:28:12;99246.20;;;7.78;79.98
59939;BME280;45801;51.810;19.444;2024-02-21T10:30:49;99246.05;;;7.76;79.79
59939;BME280;45801;51.810;19.444;2024-02-21T10:33:16;99242.30;;;7.74;79.58
59939;BME280;45801;51.810;19.444;2024-02-21T10:35:43;99237.09;;;7.84;79.65
59939;BME280;45801;51.810;19.444;2024-02-21T10:38:09;99243.55;;;7.94;79.64
59939;BME280;45801;51.810;19.444;2024-02-21T10:40:36;99241.02;;;7.99;79.31
59939;BME280;45801;51.810;19.444;2024-02-21T10:43:03;99236.59;;;8.01;78.85
59939;BME280;45801;51.810;19.444;2024-02-21T10:45:31;99241.41;;;8.03;78.72
59939;BME280;45801;51.810;19.444;2024-02-21T10:48:25;99240.50;;;8.02;78.45
59939;BME280;45801;51.810;19.444;2024-02-21T10:51:01;99240.91;;;7.91;78.30
59939;BME280;45801;51.810;19.444;2024-02-21T10:56:26;99240.48;;;7.86;77.93
59939;BME280;45801;51.810;19.444;2024-02-21T10:58:54;99237.44;;;7.78;77.56
59939;BME280;45801;51.810;19.444;2024-02-21T11:01:23;99233.86;;;7.76;78.03
59939;BME280;45801;51.810;19.444;2024-02-21T11:03:52;99226.35;;;7.82;78.39
59939;BME280;45801;51.810;19.444;2024-02-21T11:06:21;99230.91;;;7.83;77.62
59939;BME280;45801;51.810;19.444;2024-02-21T11:09:09;99226.22;;;7.80;78.06
59939;BME280;45801;51.810;19.444;2024-02-21T11:11:41;99226.83;;;7.75;78.32
59939;BME280;45801;51.810;19.444;2024-02-21T11:14:19;99220.53;;;7.78;78.89
59939;BME280;45801;51.810;19.444;2024-02-21T11:16:47;99220.40;;;7.85;79.05
59939;BME280;45801;51.810;19.444;2024-02-21T11:19:21;99214.34;;;7.89;79.12
59939;BME280;45801;51.810;19.444;2024-02-21T11:21:48;99210.13;;;7.92;79.07
59939;BME280;45801;51.810;19.444;2024-02-21T11:24:34;99206.03;;;7.87;78.93
59939;BME280;45801;51.810;19.444;2024-02-21T11:29:42;99193.39;;;7.92;79.11
59939;BME280;45801;51.810;19.444;2024-02-21T11:32:09;99189.85;;;7.85;79.50
59939;BME280;45801;51.810;19.444;2024-02-21T11:34:37;99188.20;;;7.93;79.91
59939;BME280;45801;51.810;19.444;2024-02-21T11:37:15;99183.03;;;7.78;79.81
59939;BME280;45801;51.810;19.444;2024-02-21T11:39:44;99184.31;;;7.69;79.67
59939;BME280;45801;51.810;19.444;2024-02-21T11:42:11;99184.31;;;7.75;79.75
59939;BME280;45801;51.810;19.444;2024-02-21T11:44:39;99180.86;;;7.77;79.30
59939;BME280;45801;51.810;19.444;2024-02-21T11:47:07;99182.34;;;7.71;79.59
59939;BME280;45801;51.810;19.444;2024-02-21T11:49:42;99177.61;;;7.64;79.75
59939;BME280;45801;51.810;19.444;2024-02-21T11:52:09;99180.14;;;7.59;79.94
59939;BME280;45801;51.810;19.444;2024-02-21T11:54:35;99176.80;;;7.65;79.94
59939;BME280;45801;51.810;19.444;2024-02-21T11:57:02;99172.98;;;7.66;80.15
59939;BME280;45801;51.810;19.444;2024-02-21T11:59:32;99172.40;;;7.65;80.02
59939;BME280;45801;51.810;19.444;2024-02-21T12:02:00;99171.88;;;7.65;79.96
59939;BME280;45801;51.810;19.444;2024-02-21T12:04:27;99167.14;;;7.58;80.27
59939;BME280;45801;51.810;19.444;2024-02-21T12:06:54;99166.00;;;7.63;80.17
59939;BME280;45801;51.810;19.444;2024-02-21T12:09:22;99163.55;;;7.63;80.76
59939;BME280;45801;51.810;19.444;2024-02-21T12:12:05;99156.89;;;7.62;80.91
59939;BME280;45801;51.810;19.444;2024-02-21T12:14:33;99150.95;;;7.68;80.87
59939;BME280;45801;51.810;19.444;2024-02-21T12:17:01;99150.53;;;7.70;80.32
59939;BME280;45801;51.810;19.444;2024-02-21T12:19:31;99147.67;;;7.68;79.74
59939;BME280;45801;51.810;19.444;2024-02-21T12:22:01;99145.75;;;7.68;79.62
59939;BME280;45801;51.810;19.444;2024-02-21T12:24:32;99132.45;;;7.67;79.91
59939;BME280;45801;51.810;19.444;2024-02-21T12:26:58;99129.08;;;7.69;79.91
59939;BME280;45801;51.810;19.444;2024-02-21T12:29:26;99133.21;;;7.72;79.96
59939;BME280;45801;51.810;19.444;2024-02-21T12:31:53;99126.29;;;7.76;79.65
59939;BME280;45801;51.810;19.444;2024-02-21T12:34:23;99124.48;;;7.71;79.35
59939;BME280;45801;51.810;19.444;2024-02-21T12:36:54;99124.13;;;7.75;79.72
59939;BME280;45801;51.810;19.444;2024-02-21T12:39:20;99121.92;;;7.70;79.69
59939;BME280;45801;51.810;19.444;2024-02-21T12:41:47;99119.13;;;7.66;80.15
59939;BME280;45801;51.810;19.444;2024-02-21T12:44:14;99117.05;;;7.69;80.53
59939;BME280;45801;51.810;19.444;2024-02-21T12:46:42;99110.52;;;7.68;80.56
59939;BME280;45801;51.810;19.444;2024-02-21T12:49:10;99106.41;;;7.70;80.81
59939;BME280;45801;51.810;19.444;2024-02-21T12:51:36;99101.52;;;7.76;80.42
59939;BME280;45801;51.810;19.444;2024-02-21T12:54:04;99098.46;;;7.81;80.43
59939;BME280;45801;51.810;19.444;2024-02-21T12:56:31;99098.09;;;7.87;79.58
59939;BME280;45801;51.810;19.444;2024-02-21T12:58:57;99099.09;;;7.90;79.41
59939;BME280;45801;51.810;19.444;2024-02-21T13:01:24;99100.64;;;7.89;79.22
59939;BME280;45801;51.810;19.444;2024-02-21T13:03:51;99095.06;;;7.76;78.95
59939;BME280;45801;51.810;19.444;2024-02-21T13:06:17;99090.58;;;7.81;79.37
59939;BME280;45801;51.810;19.444;2024-02-21T13:08:45;99087.95;;;7.87;79.56
59939;BME280;45801;51.810;19.444;2024-02-21T13:11:13;99086.20;;;7.90;79.46